Latest Weather Observations for Cape Otway

IDV60801

Issued at 8:35 am EDT Wednesday 22 October 2014 (issued every 30 minutes, with the page automatically refreshed every 10 minutes)

About weather observations | Map of weather stations | Latest weather observations for VIC | Other Formats
Station Details ID: 090015 Name: CAPE OTWAY LIGHTHOUSE Lat: -38.86 Lon: 143.51 Height: 82.0 m
Data from the previous 72 hours. | See also: Recent months at Cape Otway
Date/Time
EDT
Temp
°C
App
Temp
°C
Dew
Point
Rel
Hum
%
Delta-T
°C
Wind Press
QNH
hPa
Press
MSL
hPa
Rain
since 9 am
mm
Dir
 
Spd
km/h
Gust
km/h
Spd
kts
Gust
kts
22/08:30am 20.6 21.2 13.1 62 4.3 ESE 2 9 1 5 1018.2 - 0.0
22/08:00am 18.3 16.6 11.3 63 3.8 E 11 15 6 8 1017.7 - 0.0
22/07:30am 16.1 14.0 11.3 73 2.6 ENE 13 17 7 9 1017.7 - 0.0
22/07:00am 15.9 15.2 10.2 69 3.0 E 4 11 2 6 1018.1 - 0.0
22/06:30am 15.1 12.7 8.8 66 3.2 NNW 11 15 6 8 1017.6 - 0.0
22/06:00am 13.5 11.8 9.8 78 1.9 E 9 13 5 7 1017.3 1017.3 0.0
22/05:30am 14.9 12.1 10.1 73 2.5 NE 15 20 8 11 1017.2 - 0.0
22/05:00am 13.8 11.5 10.6 81 1.7 ENE 13 19 7 10 1017.5 - 0.0
22/04:30am 13.7 11.2 11.1 84 1.4 NE 15 20 8 11 1017.9 - 0.0
22/04:00am 13.2 11.5 11.1 87 1.1 ENE 11 15 6 8 1018.3 - 0.0
22/03:30am 13.6 11.2 11.3 86 1.2 ENE 15 19 8 10 1018.1 - 0.0
22/03:00am 13.5 11.2 11.6 88 1.0 E 15 19 8 10 1018.7 1018.7 0.0
22/02:30am 13.9 11.1 11.3 84 1.4 ENE 17 22 9 12 1018.9 - 0.0
22/02:00am 14.5 11.2 10.9 79 1.9 NE 19 26 10 14 1019.4 - 0.0
22/01:30am 15.0 10.7 10.9 76 2.2 NE 24 32 13 17 1019.7 - 0.0
22/01:00am 15.0 10.4 11.1 77 2.1 NE 26 32 14 17 1020.2 - 0.0
22/12:30am 14.7 10.2 11.5 81 1.7 NE 26 35 14 19 1020.5 - 0.0
22/12:00am 14.4 10.0 11.8 84 1.4 ENE 26 35 14 19 1020.8 1020.8 0.0
 
Date/Time
EDT
Temp
°C
App
Temp
°C
Dew
Point
Rel
Hum
%
Delta-T
°C
Wind Press
QNH
hPa
Press
MSL
hPa
Rain
since 9 am
mm
Dir
 
Spd
km/h
Gust
km/h
Spd
kts
Gust
kts
21/11:30pm 14.5 9.3 11.7 83 1.5 ENE 30 39 16 21 1021.1 - 0.0
21/11:00pm 14.5 9.3 11.7 83 1.5 NE 30 39 16 21 1021.6 - 0.0
21/10:30pm 14.8 9.6 11.6 81 1.7 ENE 30 44 16 24 1021.8 - 0.0
21/10:00pm 14.8 9.2 11.6 81 1.7 ENE 32 43 17 23 1022.1 - 0.0
21/09:30pm 14.7 9.2 11.7 82 1.6 ENE 32 44 17 24 1022.1 - 0.0
21/09:00pm 14.8 9.3 11.8 82 1.6 ENE 32 44 17 24 1022.2 1022.2 0.0
21/08:30pm 14.9 9.7 11.7 81 1.7 ENE 30 41 16 22 1022.2 - 0.0
21/08:00pm 15.1 9.9 11.6 79 1.9 ENE 30 41 16 22 1022.3 - 0.0
21/07:30pm 15.3 10.1 11.6 78 2.0 ENE 30 43 16 23 1022.5 - 0.0
21/07:00pm 15.4 9.8 11.5 77 2.1 ENE 32 43 17 23 1022.3 - 0.0
21/06:30pm 15.7 10.4 11.4 75 2.3 ENE 30 44 16 24 1022.5 - 0.0
21/06:00pm 16.3 10.8 11.7 74 2.5 ENE 32 41 17 22 1022.8 1022.8 0.0
21/05:30pm 16.2 10.9 11.2 72 2.7 ENE 30 39 16 21 1022.9 - 0.0
21/05:00pm 16.8 12.2 11.2 69 3.0 ENE 26 41 14 22 1023.0 - 0.0
21/04:30pm 16.7 12.2 11.3 70 2.9 ENE 26 35 14 19 1023.3 - 0.0
21/04:00pm 16.6 11.7 11.2 70 2.9 ENE 28 35 15 19 1023.4 - 0.0
21/03:30pm 16.8 11.8 11.0 68 3.1 ENE 28 37 15 20 1023.7 - 0.0
21/03:00pm 16.5 11.5 10.9 69 3.0 ENE 28 41 15 22 1023.9 1023.9 0.0
21/02:30pm 16.3 11.1 10.4 68 3.1 ENE 28 43 15 23 1024.3 - 0.0
21/02:00pm 16.7 11.2 10.5 67 3.3 ENE 30 43 16 23 1024.6 - 0.0
21/01:30pm 16.2 10.1 9.9 66 3.3 ENE 32 44 17 24 1024.9 - 0.0
21/01:00pm 15.0 9.2 9.4 69 2.9 E 30 43 16 23 1025.2 - 0.0
21/12:30pm 14.9 9.1 9.5 70 2.8 E 30 46 16 25 1025.7 - 0.0
21/12:26pm 14.7 9.3 9.4 70 2.7 E 28 46 15 25 1025.7 - 0.0
21/12:24pm 14.7 9.3 9.4 70 2.7 E 28 46 15 25 1025.7 - 0.0
21/12:00pm 14.6 9.2 9.5 71 2.6 E 28 39 15 21 1026.1 1026.2 0.0
21/11:30am 14.4 9.3 9.3 71 2.6 E 26 37 14 20 1026.2 - 0.0
21/11:00am 14.4 10.1 9.3 71 2.6 E 22 35 12 19 1026.6 - 0.0
21/10:30am 14.3 9.5 8.8 69 2.8 E 24 37 13 20 1026.7 - 0.0
21/10:00am 14.2 8.6 8.9 70 2.7 E 28 41 15 22 1026.6 - 0.0
21/09:30am 13.7 7.0 8.3 70 2.7 E 33 48 18 26 1026.4 - 0.0
21/09:06am 13.7 8.0 8.3 70 2.7 ENE 28 46 15 25 1026.6 - 0.0
21/09:04am 13.7 8.0 8.3 70 2.7 ENE 28 46 15 25 1026.6 - 0.0
21/09:00am 13.6 7.1 8.2 70 2.7 E 32 46 17 25 1026.6 1026.7 0.0
21/08:30am 13.2 7.0 7.9 70 2.6 E 30 48 16 26 1026.5 - 0.0
21/08:01am 12.9 6.3 7.8 71 2.5 ENE 32 50 17 27 1026.0 - 0.0
21/08:00am 12.9 6.4 8.0 72 2.4 ENE 32 50 17 27 1026.0 - 0.0
21/07:45am 12.7 5.6 8.0 73 2.3 E 35 54 19 29 1025.8 - 0.0
21/07:43am 12.7 5.6 8.0 73 2.3 E 35 54 19 29 1025.8 - 0.0
21/07:30am 12.4 4.9 7.9 74 2.2 E 37 52 20 28 1025.7 - 0.0
21/07:00am 12.2 4.7 7.9 75 2.1 E 37 52 20 28 1025.3 - 0.0
21/06:30am 12.0 4.1 7.7 75 2.1 E 39 63 21 34 1025.2 - 0.0
21/06:00am 12.1 3.2 7.6 74 2.2 E 44 70 24 38 1024.9 1024.7 0.0
21/05:30am 12.1 3.1 7.3 72 2.3 E 44 67 24 36 1024.4 - 0.0
21/05:00am 12.0 2.6 7.2 72 2.3 E 46 70 25 38 1024.6 - 0.0
21/04:30am 12.1 2.3 7.1 71 2.4 E 48 69 26 37 1024.6 - 0.0
21/04:00am 12.1 3.3 7.3 72 2.3 E 43 61 23 33 1024.7 - 0.0
21/03:30am 12.1 3.1 7.3 72 2.3 E 44 69 24 37 1025.2 - 0.0
21/03:00am 12.2 2.4 7.0 70 2.5 E 48 76 26 41 1025.4 1025.6 0.0
21/02:31am 12.2 2.8 7.2 71 2.4 E 46 65 25 35 1025.8 - 0.0
21/02:30am 12.2 2.4 7.2 71 2.4 E 48 65 26 35 1025.8 - 0.0
21/02:00am 12.2 3.2 7.2 71 2.4 E 44 63 24 34 1026.2 - 0.0
21/01:30am 12.2 2.8 7.2 71 2.4 E 46 69 25 37 1026.6 - 0.0
21/01:00am 12.3 3.5 7.1 70 2.5 E 43 67 23 36 1027.2 - 0.0
21/12:37am 12.3 3.4 6.9 69 2.6 E 43 61 23 33 1027.5 - 0.0
21/12:30am 12.3 3.3 7.1 70 2.5 E 44 61 24 33 1027.5 - 0.0
21/12:00am 12.5 4.2 7.8 73 2.3 E 41 61 22 33 1027.8 1028.0 0.0
 
Date/Time
EDT
Temp
°C
App
Temp
°C
Dew
Point
Rel
Hum
%
Delta-T
°C
Wind Press
QNH
hPa
Press
MSL
hPa
Rain
since 9 am
mm
Dir
 
Spd
km/h
Gust
km/h
Spd
kts
Gust
kts
20/11:30pm 12.6 4.2 7.4 70 2.5 E 41 65 22 35 1028.0 - 0.0
20/11:00pm 12.5 3.6 7.6 72 2.4 E 44 67 24 36 1028.1 - 0.0
20/10:35pm 12.6 5.1 7.9 73 2.3 E 37 56 20 30 1028.4 - 0.0
20/10:30pm 12.5 4.5 7.6 72 2.4 E 39 54 21 29 1028.4 - 0.0
20/10:00pm 12.5 4.5 7.3 70 2.5 E 39 61 21 33 1028.3 - 0.0
20/09:30pm 12.4 4.8 7.7 73 2.3 E 37 57 20 31 1028.4 - 0.0
20/09:07pm 12.5 5.4 8.2 75 2.1 E 35 54 19 29 1028.6 - 0.0
20/09:00pm 12.3 5.8 8.0 75 2.1 E 32 50 17 27 1028.4 1028.5 0.0
20/08:30pm 12.3 5.6 8.2 76 2.0 E 33 54 18 29 1028.7 - 0.0
20/08:00pm 12.2 5.6 7.9 75 2.1 E 32 54 17 29 1028.5 - 0.0
20/07:30pm 12.2 6.0 7.7 74 2.2 E 30 54 16 29 1028.8 - 0.0
20/07:00pm 12.3 6.0 7.6 73 2.3 E 30 57 16 31 1029.0 - 0.0
20/06:30pm 12.5 6.7 7.8 73 2.3 E 28 52 15 28 1029.0 - 0.0
20/06:00pm 12.5 6.1 6.9 68 2.7 E 30 54 16 29 1029.6 1029.6 0.0
20/05:30pm 12.9 6.1 7.1 68 2.8 E 32 57 17 31 1029.3 - 0.0
20/05:00pm 12.9 6.0 6.4 64 3.1 E 32 52 17 28 1029.5 - 0.0
20/04:30pm 13.2 7.0 6.0 61 3.4 E 28 46 15 25 1029.9 - 0.0
20/04:11pm 13.3 7.0 5.6 59 3.6 E 28 48 15 26 1029.9 - 0.0
20/04:09pm 13.3 7.0 5.6 59 3.6 E 28 48 15 26 1029.9 - 0.0
20/04:00pm 13.4 7.4 5.5 59 3.7 E 26 44 14 24 1030.0 - 0.0
20/03:30pm 13.5 7.3 4.3 53 4.2 E 26 43 14 23 1030.3 - 0.0
20/03:00pm 13.8 8.1 4.7 54 4.2 E 24 43 13 23 1030.4 1030.4 0.0
20/02:30pm 13.5 7.1 3.4 50 4.5 E 26 43 14 23 1030.6 - 0.0
20/02:00pm 13.6 7.2 3.3 49 4.6 E 26 39 14 21 1030.9 - 0.0
20/01:30pm 13.2 7.0 2.1 47 4.8 E 24 41 13 22 1031.1 - 0.0
20/01:00pm 12.9 5.2 2.3 48 4.6 E 32 46 17 25 1031.4 - 0.0
20/12:30pm 13.1 4.8 2.3 48 4.7 E 35 52 19 28 1031.5 - 0.0
20/12:12pm 12.7 5.6 1.4 46 4.8 E 28 46 15 25 1031.7 - 0.0
20/12:10pm 12.7 5.6 1.4 46 4.8 E 28 46 15 25 1031.7 - 0.0
20/12:00pm 12.7 5.2 1.4 46 4.8 E 30 44 16 24 1031.8 1031.7 0.0
20/11:41am 12.6 5.7 2.5 50 4.4 E 28 46 15 25 1032.2 - 0.0
20/11:39am 12.6 5.7 2.5 50 4.4 E 28 46 15 25 1032.2 - 0.0
20/11:30am 12.8 5.2 2.7 50 4.5 E 32 46 17 25 1032.4 - 0.0
20/11:25am 12.6 5.7 2.5 50 4.4 E 28 46 15 25 1032.4 - 0.0
20/11:00am 12.8 6.4 3.0 51 4.3 E 26 43 14 23 1032.5 - 0.0
20/10:30am 12.4 5.8 2.2 50 4.4 E 26 41 14 22 1032.3 - 0.0
20/10:06am 12.2 4.5 2.2 50 4.3 E 32 50 17 27 1032.2 - 0.0
20/10:04am 12.2 4.5 2.2 50 4.3 E 32 50 17 27 1032.2 - 0.0
20/10:00am 12.1 4.3 2.0 50 4.4 E 32 46 17 25 1032.1 - 0.0
20/09:30am 11.7 2.9 1.5 49 4.3 E 37 50 20 27 1031.9 - 0.0
20/09:05am 11.2 3.8 2.0 53 3.9 E 30 48 16 26 1032.0 - 0.0
20/09:03am 11.2 3.8 2.0 53 3.9 E 30 48 16 26 1032.0 - 0.0
20/09:00am 11.4 3.1 2.0 52 4.0 ESE 35 48 19 26 1031.9 1031.8 0.0
20/08:35am 11.6 3.7 2.3 53 4.0 E 33 52 18 28 1031.5 - 0.0
20/08:33am 11.6 3.7 2.3 53 4.0 E 33 52 18 28 1031.5 - 0.0
20/08:30am 11.5 3.2 2.1 52 4.0 E 35 52 19 28 1031.5 - 0.0
20/08:07am 10.8 2.9 2.3 55 3.6 E 33 52 18 28 1031.4 - 0.0
20/08:01am 10.8 2.9 2.0 54 3.7 E 33 52 18 28 1031.2 - 0.0
20/08:00am 10.7 2.4 1.9 54 3.7 E 35 52 19 28 1031.2 - 0.0
20/07:30am 10.7 2.0 2.2 55 3.6 E 37 56 20 30 1031.1 - 0.0
20/07:10am 10.6 3.2 2.1 55 3.6 E 30 48 16 26 1030.8 - 0.0
20/07:00am 10.8 2.5 2.3 55 3.6 E 35 50 19 27 1030.4 - 0.0
20/06:30am 10.6 3.3 2.4 57 3.5 E 30 50 16 27 1030.4 - 0.0
20/06:27am 10.6 2.9 2.1 55 3.6 E 32 50 17 27 1030.3 - 0.0
20/06:25am 10.6 2.9 2.1 55 3.6 E 32 50 17 27 1030.3 - 0.0
20/06:00am 10.7 1.5 1.0 51 4.0 ESE 39 52 21 28 1029.7 1029.5 0.0
20/05:30am 11.0 1.6 2.6 56 3.6 ESE 41 54 22 29 1029.3 - 0.0
20/05:18am 11.0 4.1 2.6 56 3.6 E 28 46 15 25 1029.2 - 0.0
20/05:16am 11.0 4.1 2.6 56 3.6 E 28 46 15 25 1029.2 - 0.0
20/05:00am 10.7 3.3 1.6 53 3.8 E 30 44 16 24 1029.0 - 0.0
20/04:57am 10.5 2.5 0.4 49 4.1 E 32 50 17 27 1029.2 - 0.0
20/04:44am 10.8 2.1 2.1 55 3.7 ESE 37 50 20 27 1029.2 - 0.0
20/04:42am 10.8 3.1 2.1 55 3.7 ESE 32 50 17 27 1029.2 - 0.0
20/04:30am 10.6 5.4 2.7 58 3.4 SE 19 37 10 20 1029.4 - 0.0
20/04:00am 10.3 5.7 3.7 63 2.9 SE 17 30 9 16 1029.7 - 0.0
20/03:30am 10.5 6.3 3.9 63 2.9 SSE 15 28 8 15 1030.0 - 0.0
20/03:00am 11.1 6.0 4.1 62 3.1 SE 20 39 11 21 1029.6 1029.7 0.0
20/02:30am 11.0 5.4 3.2 58 3.4 SE 22 35 12 19 1029.8 - 0.0
20/02:00am 11.2 6.8 4.8 64 2.9 SE 17 32 9 17 1029.7 - 0.0
20/01:30am 11.4 5.8 5.5 67 2.7 SE 24 39 13 21 1029.9 - 0.0
20/01:00am 11.3 7.5 4.1 61 3.2 W 13 20 7 11 1029.8 - 0.0
20/12:30am 11.2 8.0 5.0 65 2.8 WSW 11 20 6 11 1030.0 - 0.0
20/12:00am 11.4 8.0 6.0 69 2.5 WSW 13 22 7 12 1029.6 1029.6 0.0
 
Date/Time
EDT
Temp
°C
App
Temp
°C
Dew
Point
Rel
Hum
%
Delta-T
°C
Wind Press
QNH
hPa
Press
MSL
hPa
Rain
since 9 am
mm
Dir
 
Spd
km/h
Gust
km/h
Spd
kts
Gust
kts
19/11:30pm 11.1 7.9 6.9 75 2.0 WSW 13 22 7 12 1029.5 - 0.0
19/11:00pm 11.7 7.6 6.4 70 2.5 SW 17 24 9 13 1029.6 - 0.0
19/10:30pm 11.6 7.1 6.3 70 2.5 SW 19 32 10 17 1029.2 - 0.0
19/10:00pm 11.6 6.6 6.5 71 2.4 SSW 22 32 12 17 1029.2 - 0.0
19/09:30pm 11.6 7.2 6.7 72 2.3 SW 19 28 10 15 1028.9 - 0.0
19/09:00pm 10.8 5.0 7.9 82 1.4 SSW 28 35 15 19 1028.6 1028.5 0.0
19/08:30pm 11.5 7.3 8.2 80 1.6 SW 20 28 11 15 1027.2 - 0.0
19/08:00pm 11.4 6.6 8.8 84 1.3 SW 24 32 13 17 1026.9 - 0.0
19/07:30pm 11.4 7.2 9.8 90 0.8 SW 22 32 12 17 1025.9 - 0.0
19/07:00pm 11.7 6.1 10.3 91 0.7 SSW 30 43 16 23 1024.7 - 0.0
19/06:30pm 13.5 8.9 9.6 77 2.0 SSW 24 33 13 18 1024.5 - 0.0
19/06:00pm 13.6 9.2 10.3 80 1.7 SW 24 32 13 17 1024.2 1024.1 0.0
19/05:30pm 13.6 8.4 10.3 80 1.7 SW 28 33 15 18 1024.0 - 0.0
19/05:00pm 13.4 8.8 10.9 85 1.3 SW 26 37 14 20 1023.2 - 0.0
19/04:30pm 13.9 9.4 11.5 85 1.3 WSW 26 37 14 20 1023.7 - 0.0
19/04:00pm 14.2 11.1 11.6 84 1.4 SW 19 24 10 13 1022.3 - 0.0
19/03:30pm 14.5 10.9 11.7 83 1.5 SW 22 30 12 16 1022.4 - 0.0
19/03:00pm 14.5 10.7 11.1 80 1.8 SW 22 28 12 15 1021.8 1021.8 0.0
19/02:30pm 14.5 11.3 11.3 81 1.7 SW 19 24 10 13 1021.3 - 0.0
19/02:00pm 14.7 11.6 11.5 81 1.7 SW 19 24 10 13 1021.5 - 0.0
19/01:30pm 14.8 12.3 12.2 84 1.4 WSW 17 22 9 12 1021.3 - 0.0
19/01:00pm 14.9 12.4 12.3 84 1.4 WSW 17 22 9 12 1021.5 - 0.0
19/12:30pm 14.7 12.2 12.3 85 1.3 WSW 17 20 9 11 1021.2 - 0.0
19/12:00pm 14.3 12.6 12.3 88 1.1 SW 13 17 7 9 1020.7 1020.6 0.0
19/11:30am 14.3 11.9 12.5 89 1.0 SW 17 20 9 11 1020.9 - 0.0
19/11:00am 14.2 12.5 12.6 90 0.9 SW 13 17 7 9 1020.8 - 0.0
19/10:30am 14.4 12.7 12.6 89 1.0 WSW 13 19 7 10 1020.4 - 0.0
19/10:00am 14.1 12.4 12.6 91 0.8 WSW 13 19 7 10 1020.1 - 0.0
19/09:30am 14.4 12.1 12.9 91 0.8 WSW 17 22 9 12 1020.4 - 0.0
19/09:00am 14.0 13.5 12.5 91 0.8 W 7 9 4 5 1019.3 1019.3 0.0

Other Formats:

Comma delimited format used in spreadsheet applications
http://www.bom.gov.au/fwo/IDV60801/IDV60801.94842.axf

JavaScript Object Notation format (JSON) in row-major order
http://www.bom.gov.au/fwo/IDV60801/IDV60801.94842.json